createdAt,value
2018-02-25T00:00:15.488Z,0
2018-02-25T00:01:17.088Z,0
2018-02-25T00:02:18.693Z,0
2018-02-25T00:03:20.299Z,0
2018-02-25T00:04:21.898Z,0
2018-02-25T00:05:23.505Z,0
2018-02-25T00:06:25.610Z,0
2018-02-25T00:07:27.219Z,0
2018-02-25T00:08:28.819Z,0
2018-02-25T00:09:30.427Z,0
2018-02-25T00:10:32.027Z,0
2018-02-25T00:11:33.633Z,0
2018-02-25T00:12:35.236Z,0
2018-02-25T00:13:36.842Z,0
2018-02-25T00:14:38.443Z,0
2018-02-25T00:15:40.049Z,0
2018-02-25T00:16:41.660Z,0
2018-02-25T00:17:43.260Z,0
2018-02-25T00:18:44.860Z,0
2018-02-25T00:19:46.468Z,0
2018-02-25T00:20:48.070Z,0
2018-02-25T00:21:49.676Z,0
2018-02-25T00:22:51.277Z,0
2018-02-25T00:23:52.882Z,0
2018-02-25T00:24:54.544Z,0
2018-02-25T00:25:56.094Z,0
2018-02-25T00:26:57.694Z,0
2018-02-25T00:27:59.294Z,0
2018-02-25T00:29:00.897Z,0
2018-02-25T00:30:02.498Z,0
2018-02-25T00:31:04.109Z,0
2018-02-25T00:32:05.717Z,0
2018-02-25T00:33:07.318Z,0
2018-02-25T00:34:08.927Z,0
2018-02-25T00:35:10.532Z,0
2018-02-25T00:36:12.138Z,0
2018-02-25T00:37:13.738Z,0
2018-02-25T00:38:15.345Z,0
2018-02-25T00:39:16.949Z,0
2018-02-25T00:40:18.555Z,0
2018-02-25T00:41:20.155Z,0
2018-02-25T00:42:21.821Z,0
2018-02-25T00:43:23.498Z,0
2018-02-25T00:44:25.144Z,0
2018-02-25T00:45:26.800Z,0
2018-02-25T00:46:28.451Z,0
2018-02-25T00:47:30.024Z,0
2018-02-25T00:48:31.624Z,0
2018-02-25T00:49:33.582Z,0
2018-02-25T00:50:35.368Z,0
2018-02-25T00:51:36.968Z,0
2018-02-25T00:52:38.571Z,0
2018-02-25T00:53:40.419Z,0
2018-02-25T00:54:42.013Z,0
2018-02-25T00:55:43.621Z,0
2018-02-25T00:56:45.260Z,0
2018-02-25T00:57:46.869Z,0
2018-02-25T00:58:48.471Z,0
2018-02-25T00:59:50.140Z,0
2018-02-25T01:00:51.741Z,0
2018-02-25T01:01:53.771Z,0
2018-02-25T01:02:55.486Z,0
2018-02-25T01:03:57.088Z,0
2018-02-25T01:04:58.891Z,0
2018-02-25T01:06:00.590Z,0
2018-02-25T01:07:02.213Z,0
2018-02-25T01:08:04.030Z,0
2018-02-25T01:09:05.715Z,0
2018-02-25T01:10:07.320Z,0
2018-02-25T01:11:08.924Z,0
2018-02-25T01:12:10.770Z,0
2018-02-25T01:13:12.739Z,0
2018-02-25T01:14:14.348Z,0
2018-02-25T01:15:15.954Z,0
2018-02-25T01:16:17.693Z,0
2018-02-25T01:17:19.509Z,0
2018-02-25T01:18:21.287Z,0
2018-02-25T01:19:23.077Z,0
2018-02-25T01:20:24.681Z,0
2018-02-25T01:21:26.661Z,0
2018-02-25T01:22:28.456Z,0
2018-02-25T01:23:30.062Z,0
2018-02-25T01:24:31.667Z,0
2018-02-25T01:25:33.267Z,0
2018-02-25T01:26:35.017Z,0
2018-02-25T01:27:36.626Z,0
2018-02-25T01:28:38.412Z,0
2018-02-25T01:29:40.082Z,0
2018-02-25T01:30:41.837Z,0
2018-02-25T01:31:43.443Z,0
2018-02-25T01:32:45.044Z,0
2018-02-25T01:33:46.665Z,0
2018-02-25T01:34:48.272Z,0
2018-02-25T01:35:50.311Z,0
2018-02-25T01:36:51.983Z,0
2018-02-25T01:37:53.786Z,0
2018-02-25T01:38:55.869Z,0
2018-02-25T01:39:57.486Z,0
2018-02-25T01:40:59.091Z,0
2018-02-25T01:42:00.949Z,0
2018-02-25T01:43:02.654Z,0
2018-02-25T01:44:04.261Z,0
2018-02-25T01:45:06.921Z,0
2018-02-25T01:46:08.812Z,0
2018-02-25T01:47:10.408Z,0
2018-02-25T01:48:12.031Z,0
2018-02-25T01:49:13.742Z,0
2018-02-25T01:50:15.417Z,0
2018-02-25T01:51:17.294Z,0
2018-02-25T01:52:19.021Z,0
2018-02-25T01:53:20.626Z,0
2018-02-25T01:54:22.225Z,0
2018-02-25T01:55:23.891Z,0
2018-02-25T01:56:25.633Z,0
2018-02-25T01:57:27.240Z,0
2018-02-25T01:58:28.846Z,0
2018-02-25T01:59:30.445Z,0
2018-02-25T02:00:32.259Z,0
2018-02-25T02:01:33.838Z,0
2018-02-25T02:02:35.692Z,0
2018-02-25T02:03:37.301Z,0
2018-02-25T02:04:39.080Z,0
2018-02-25T02:05:40.683Z,0
2018-02-25T02:06:42.765Z,0
2018-02-25T02:07:44.368Z,0
2018-02-25T02:08:45.974Z,0
2018-02-25T02:09:47.926Z,0
2018-02-25T02:10:49.779Z,0
2018-02-25T02:11:51.592Z,0
2018-02-25T02:12:53.199Z,0
2018-02-25T02:13:54.802Z,0
2018-02-25T02:14:56.401Z,0
2018-02-25T02:15:58.010Z,0
2018-02-25T02:16:59.617Z,0
2018-02-25T02:18:01.212Z,0
2018-02-25T02:19:02.816Z,0
2018-02-25T02:20:04.423Z,0
2018-02-25T02:21:06.026Z,0
2018-02-25T02:22:07.626Z,0
2018-02-25T02:23:09.225Z,0
2018-02-25T02:24:10.832Z,0
2018-02-25T02:25:12.850Z,0
2018-02-25T02:26:14.452Z,0
2018-02-25T02:27:16.058Z,0
2018-02-25T02:28:17.663Z,0
2018-02-25T02:29:19.268Z,0
2018-02-25T02:30:20.868Z,0
2018-02-25T02:31:22.475Z,0
2018-02-25T02:32:24.075Z,0
2018-02-25T02:33:25.679Z,0
2018-02-25T02:34:27.286Z,0
2018-02-25T02:35:28.893Z,0
2018-02-25T02:36:30.491Z,0
2018-02-25T02:37:32.094Z,0
2018-02-25T02:38:33.701Z,0
2018-02-25T02:39:35.307Z,0
2018-02-25T02:40:36.910Z,0
2018-02-25T02:41:38.524Z,0
2018-02-25T02:42:40.118Z,0
2018-02-25T02:43:41.724Z,0
2018-02-25T02:44:43.323Z,0
2018-02-25T02:45:44.925Z,0
2018-02-25T02:46:46.534Z,0
2018-02-25T02:47:48.139Z,0
2018-02-25T02:48:49.740Z,0
2018-02-25T02:49:51.345Z,0
2018-02-25T02:50:52.948Z,0
2018-02-25T02:51:54.554Z,0
2018-02-25T02:52:56.154Z,0
2018-02-25T02:53:57.763Z,0
2018-02-25T02:54:59.365Z,0
2018-02-25T02:56:00.974Z,0
2018-02-25T02:57:02.570Z,0
2018-02-25T02:58:04.174Z,0
2018-02-25T02:59:05.776Z,0
2018-02-25T03:00:07.384Z,0
2018-02-25T03:01:08.986Z,0
2018-02-25T03:02:11.243Z,0
2018-02-25T03:03:12.846Z,0
2018-02-25T03:04:14.450Z,0
2018-02-25T03:05:16.051Z,0
2018-02-25T03:06:17.653Z,0
2018-02-25T03:07:19.264Z,0
2018-02-25T03:08:20.861Z,0
2018-02-25T03:09:22.469Z,0
2018-02-25T03:10:24.073Z,0
2018-02-25T03:11:25.680Z,0
2018-02-25T03:12:27.280Z,0
2018-02-25T03:13:28.886Z,0
2018-02-25T03:14:30.487Z,0
2018-02-25T03:15:32.096Z,0
2018-02-25T03:16:33.695Z,0
2018-02-25T03:17:35.322Z,0
2018-02-25T03:18:36.902Z,0
2018-02-25T03:19:38.507Z,0
2018-02-25T03:20:40.113Z,0
2018-02-25T03:21:41.715Z,0
2018-02-25T03:22:43.317Z,0
2018-02-25T03:23:44.926Z,0
2018-02-25T03:24:46.534Z,0
2018-02-25T03:25:48.132Z,0
2018-02-25T03:26:49.736Z,0
2018-02-25T03:27:51.339Z,0
2018-02-25T03:28:52.945Z,0
2018-02-25T03:29:54.550Z,0
2018-02-25T03:30:56.152Z,0
2018-02-25T03:31:57.751Z,0
2018-02-25T03:32:59.352Z,0
2018-02-25T03:34:00.959Z,0
2018-02-25T03:35:02.564Z,0
2018-02-25T03:36:04.172Z,0
2018-02-25T03:37:05.777Z,0
2018-02-25T03:38:07.381Z,0
2018-02-25T03:39:08.984Z,0
2018-02-25T03:40:10.591Z,0
2018-02-25T03:41:12.193Z,0
2018-02-25T03:42:13.791Z,0
2018-02-25T03:43:15.395Z,0
2018-02-25T03:44:17.003Z,0
2018-02-25T03:45:18.608Z,0
2018-02-25T03:46:20.211Z,0
2018-02-25T03:47:21.813Z,0
2018-02-25T03:48:23.420Z,0
2018-02-25T03:49:25.033Z,0
2018-02-25T03:50:26.628Z,0
2018-02-25T03:51:28.234Z,0
2018-02-25T03:52:29.835Z,0
2018-02-25T03:53:31.443Z,0
2018-02-25T03:54:33.041Z,0
2018-02-25T03:55:35.550Z,0
2018-02-25T03:56:37.154Z,0
2018-02-25T03:57:38.758Z,0
2018-02-25T03:58:40.359Z,0
2018-02-25T03:59:41.967Z,0
2018-02-25T04:00:43.569Z,0
2018-02-25T04:01:45.168Z,0
2018-02-25T04:02:46.776Z,0
2018-02-25T04:03:48.378Z,0
2018-02-25T04:04:49.977Z,0
2018-02-25T04:05:51.584Z,0
2018-02-25T04:06:53.188Z,0
2018-02-25T04:07:54.792Z,0
2018-02-25T04:08:56.398Z,0
2018-02-25T04:09:57.998Z,0
2018-02-25T04:10:59.602Z,0
2018-02-25T04:12:01.207Z,0
2018-02-25T04:13:02.811Z,0
2018-02-25T04:14:04.411Z,0
2018-02-25T04:15:06.020Z,0
2018-02-25T04:16:07.617Z,0
2018-02-25T04:17:09.225Z,0
2018-02-25T04:18:10.830Z,0
2018-02-25T04:19:12.431Z,0
2018-02-25T04:20:14.039Z,0
2018-02-25T04:21:15.645Z,0
2018-02-25T04:22:17.246Z,0
2018-02-25T04:23:18.853Z,0
2018-02-25T04:24:20.452Z,0
2018-02-25T04:25:22.058Z,0
2018-02-25T04:26:23.662Z,0
2018-02-25T04:27:25.261Z,0
2018-02-25T04:28:26.865Z,0
2018-02-25T04:29:28.472Z,0
2018-02-25T04:30:30.078Z,0
2018-02-25T04:31:31.679Z,0
2018-02-25T04:32:33.281Z,0
2018-02-25T04:33:34.889Z,0
2018-02-25T04:34:36.492Z,0
2018-02-25T04:35:38.094Z,0
2018-02-25T04:36:39.697Z,0
2018-02-25T04:37:41.301Z,0
2018-02-25T04:38:42.901Z,0
2018-02-25T04:39:44.505Z,0
2018-02-25T04:40:46.105Z,0
2018-02-25T04:41:47.707Z,0
2018-02-25T04:42:49.309Z,0
2018-02-25T04:43:50.920Z,0
2018-02-25T04:44:52.515Z,0
2018-02-25T04:45:54.121Z,0
2018-02-25T04:46:55.722Z,0
2018-02-25T04:47:57.329Z,0
2018-02-25T04:48:58.930Z,0
2018-02-25T04:50:00.539Z,0
2018-02-25T04:51:02.135Z,0
2018-02-25T04:52:03.741Z,0
2018-02-25T04:53:05.348Z,0
2018-02-25T04:54:06.947Z,0
2018-02-25T04:55:08.550Z,0
2018-02-25T04:56:10.156Z,0
2018-02-25T04:57:11.762Z,0
2018-02-25T04:58:13.367Z,0
2018-02-25T04:59:14.968Z,0
2018-02-25T05:00:16.575Z,0
2018-02-25T05:01:18.184Z,0
2018-02-25T05:02:19.781Z,0
2018-02-25T05:03:21.384Z,0
2018-02-25T05:04:22.990Z,0
2018-02-25T05:05:24.596Z,0
2018-02-25T05:06:26.193Z,0
2018-02-25T05:07:27.792Z,0
2018-02-25T05:08:29.392Z,0
2018-02-25T05:09:30.999Z,0
2018-02-25T05:10:32.600Z,0
2018-02-25T05:11:34.203Z,0
2018-02-25T05:12:35.810Z,0
2018-02-25T05:13:37.412Z,0
2018-02-25T05:14:39.020Z,0
2018-02-25T05:15:40.618Z,0
2018-02-25T05:16:42.226Z,0
2018-02-25T05:17:43.833Z,0
2018-02-25T05:18:45.434Z,0
2018-02-25T05:19:47.039Z,0
2018-02-25T05:20:48.640Z,0
2018-02-25T05:21:50.245Z,0
2018-02-25T05:22:51.844Z,0
2018-02-25T05:23:53.449Z,0
2018-02-25T05:24:55.052Z,0
2018-02-25T05:25:56.661Z,0
2018-02-25T05:26:58.283Z,0
2018-02-25T05:27:59.886Z,0
2018-02-25T05:29:01.488Z,0
2018-02-25T05:30:03.094Z,0
2018-02-25T05:31:04.698Z,0
2018-02-25T05:32:06.303Z,0
2018-02-25T05:33:07.904Z,0
2018-02-25T05:34:09.510Z,0
2018-02-25T05:35:11.107Z,0
2018-02-25T05:36:12.713Z,0
2018-02-25T05:37:14.310Z,0
2018-02-25T05:38:15.919Z,0
2018-02-25T05:39:17.519Z,0
2018-02-25T05:40:19.130Z,0
2018-02-25T05:41:20.733Z,0
2018-02-25T05:42:22.333Z,0
2018-02-25T05:43:23.938Z,0
2018-02-25T05:44:25.537Z,0
2018-02-25T05:45:27.145Z,0
2018-02-25T05:46:28.754Z,0
2018-02-25T05:47:30.356Z,0
2018-02-25T05:48:31.959Z,0
2018-02-25T05:49:33.566Z,0
2018-02-25T05:50:35.166Z,0
2018-02-25T05:51:36.773Z,4
2018-02-25T05:52:38.372Z,0
2018-02-25T05:53:39.978Z,0
2018-02-25T05:54:41.577Z,4
2018-02-25T05:55:43.185Z,0
2018-02-25T05:56:44.783Z,4
2018-02-25T05:57:47.357Z,4
2018-02-25T05:58:48.962Z,4
2018-02-25T05:59:50.563Z,4
2018-02-25T06:00:52.168Z,8
2018-02-25T06:01:53.770Z,12
2018-02-25T06:02:55.375Z,12
2018-02-25T06:03:56.975Z,12
2018-02-25T06:04:58.577Z,16
2018-02-25T06:06:00.183Z,16
2018-02-25T06:07:01.790Z,24
2018-02-25T06:08:03.393Z,24
2018-02-25T06:09:04.998Z,32
2018-02-25T06:10:06.608Z,40
2018-02-25T06:11:08.213Z,40
2018-02-25T06:12:09.813Z,52
2018-02-25T06:13:11.420Z,56
2018-02-25T06:14:13.026Z,68
2018-02-25T06:15:14.644Z,80
2018-02-25T06:16:16.232Z,88
2018-02-25T06:17:17.836Z,100
2018-02-25T06:18:19.442Z,112
2018-02-25T06:19:21.047Z,132
2018-02-25T06:20:22.652Z,148
2018-02-25T06:21:24.259Z,164
2018-02-25T06:22:25.866Z,180
2018-02-25T06:23:27.474Z,200
2018-02-25T06:24:29.079Z,220
2018-02-25T06:25:30.683Z,244
2018-02-25T06:26:32.293Z,268
2018-02-25T06:27:33.898Z,292
2018-02-25T06:28:35.503Z,320
2018-02-25T06:29:37.110Z,348
2018-02-25T06:30:38.721Z,376
2018-02-25T06:31:41.264Z,408
2018-02-25T06:32:42.869Z,440
2018-02-25T06:33:44.473Z,472
2018-02-25T06:34:46.081Z,508
2018-02-25T06:35:47.688Z,540
2018-02-25T06:36:49.298Z,576
2018-02-25T06:37:50.899Z,612
2018-02-25T06:38:52.517Z,652
2018-02-25T06:39:54.125Z,692
2018-02-25T06:40:55.728Z,732
2018-02-25T06:41:57.337Z,768
2018-02-25T06:42:58.942Z,812
2018-02-25T06:44:00.549Z,856
2018-02-25T06:45:02.154Z,896
2018-02-25T06:46:03.761Z,940
2018-02-25T06:47:05.369Z,980
2018-02-25T06:48:06.977Z,1024
2018-02-25T06:49:08.580Z,1068
2018-02-25T06:50:10.198Z,1112
2018-02-25T06:51:11.795Z,1156
2018-02-25T06:52:14.140Z,1196
2018-02-25T06:53:15.752Z,1244
2018-02-25T06:54:17.354Z,1288
2018-02-25T06:55:18.964Z,1328
2018-02-25T06:56:20.567Z,1376
2018-02-25T06:57:22.178Z,1416
2018-02-25T06:58:23.782Z,1464
2018-02-25T06:59:25.396Z,1508
2018-02-25T07:00:27.001Z,1552
2018-02-25T07:01:28.607Z,1592
2018-02-25T07:02:30.216Z,1640
2018-02-25T07:03:31.822Z,1680
2018-02-25T07:04:33.432Z,1724
2018-02-25T07:05:35.039Z,1764
2018-02-25T07:06:36.648Z,1808
2018-02-25T07:07:38.262Z,1852
2018-02-25T07:08:39.867Z,1896
2018-02-25T07:09:41.479Z,1944
2018-02-25T07:10:43.085Z,1988
2018-02-25T07:11:44.692Z,2032
2018-02-25T07:12:46.301Z,2076
2018-02-25T07:13:47.913Z,2120
2018-02-25T07:14:49.526Z,2160
2018-02-25T07:15:51.129Z,2200
2018-02-25T07:16:52.735Z,2240
2018-02-25T07:17:54.346Z,2280
2018-02-25T07:18:55.958Z,2316
2018-02-25T07:19:57.562Z,2360
2018-02-25T07:20:59.177Z,2412
2018-02-25T07:22:00.783Z,2472
2018-02-25T07:23:02.390Z,2580
2018-02-25T07:24:04.000Z,2732
2018-02-25T07:25:05.607Z,2892
2018-02-25T07:26:07.218Z,2956
2018-02-25T07:27:08.829Z,3048
2018-02-25T07:28:10.435Z,3212
2018-02-25T07:29:12.044Z,3148
2018-02-25T07:30:13.653Z,3092
2018-02-25T07:31:15.264Z,3224
2018-02-25T07:32:16.868Z,3260
2018-02-25T07:33:18.494Z,3020
2018-02-25T07:34:20.089Z,3016
2018-02-25T07:35:21.698Z,3048
2018-02-25T07:36:23.307Z,3104
2018-02-25T07:37:24.912Z,3088
2018-02-25T07:38:26.523Z,3156
2018-02-25T07:39:28.164Z,3252
2018-02-25T07:40:29.893Z,3280
2018-02-25T07:41:31.502Z,3304
2018-02-25T07:42:33.134Z,3292
2018-02-25T07:43:34.727Z,3316
2018-02-25T07:44:36.380Z,3432
2018-02-25T07:45:38.461Z,3804
2018-02-25T07:46:40.035Z,4344
2018-02-25T07:47:41.645Z,5020
2018-02-25T07:48:43.253Z,5692
2018-02-25T07:49:48.867Z,6296
2018-02-25T07:50:50.425Z,7144
2018-02-25T07:51:52.037Z,7624
2018-02-25T07:52:53.638Z,8072
2018-02-25T07:53:55.255Z,8388
2018-02-25T07:54:56.858Z,8756
2018-02-25T07:55:58.619Z,9136
2018-02-25T07:57:00.239Z,9496
2018-02-25T07:58:01.847Z,9788
2018-02-25T07:59:03.453Z,10024
2018-02-25T08:00:05.278Z,10292
2018-02-25T08:01:06.888Z,10552
2018-02-25T08:02:08.511Z,10852
2018-02-25T08:03:10.124Z,11048
2018-02-25T08:04:11.734Z,11268
2018-02-25T08:05:13.353Z,10076
2018-02-25T08:06:14.957Z,10520
2018-02-25T08:07:16.569Z,12052
2018-02-25T08:08:18.178Z,12316
2018-02-25T08:09:19.792Z,12672
2018-02-25T08:10:21.401Z,13056
2018-02-25T08:11:23.017Z,13468
2018-02-25T08:12:24.626Z,13936
2018-02-25T08:13:26.311Z,14284
2018-02-25T08:14:27.917Z,14604
2018-02-25T08:15:29.545Z,14896
2018-02-25T08:16:31.159Z,15232
2018-02-25T08:17:32.771Z,15296
2018-02-25T08:18:34.383Z,15520
2018-02-25T08:19:37.449Z,15680
2018-02-25T08:20:39.058Z,15808
2018-02-25T08:21:40.667Z,15904
2018-02-25T08:22:42.276Z,16000
2018-02-25T08:23:43.995Z,16032
2018-02-25T08:24:45.600Z,16160
2018-02-25T08:25:47.219Z,16000
2018-02-25T08:26:48.830Z,15392
2018-02-25T08:27:50.525Z,14476
2018-02-25T08:28:52.131Z,12092
2018-02-25T08:29:53.739Z,8732
2018-02-25T08:30:55.357Z,8932
2018-02-25T08:31:56.960Z,11352
2018-02-25T08:32:58.575Z,13632
2018-02-25T08:34:00.182Z,16672
2018-02-25T08:35:01.787Z,23360
2018-02-25T08:36:03.400Z,27104
2018-02-25T08:37:05.014Z,28544
2018-02-25T08:38:06.616Z,27744
2018-02-25T08:39:08.225Z,29920
2018-02-25T08:40:09.841Z,37184
2018-02-25T08:41:11.455Z,40352
2018-02-25T08:42:13.061Z,41312
2018-02-25T08:43:14.672Z,41536
2018-02-25T08:44:16.284Z,41504
2018-02-25T08:45:17.898Z,41056
2018-02-25T08:46:19.509Z,42144
2018-02-25T08:47:21.121Z,42976
2018-02-25T08:48:22.737Z,41984
2018-02-25T08:49:24.353Z,40064
2018-02-25T08:50:25.957Z,38176
2018-02-25T08:51:27.570Z,38144
2018-02-25T08:52:29.182Z,36288
2018-02-25T08:53:30.798Z,28064
2018-02-25T08:54:32.409Z,21728
2018-02-25T08:55:34.027Z,27456
2018-02-25T08:56:35.642Z,37696
2018-02-25T08:57:37.251Z,43488
2018-02-25T08:58:38.867Z,44480
2018-02-25T08:59:40.484Z,43136
2018-02-25T09:00:42.094Z,42624
2018-02-25T09:01:43.711Z,43264
2018-02-25T09:02:45.332Z,43360
2018-02-25T09:03:46.944Z,44128
2018-02-25T09:04:48.553Z,43840
2018-02-25T09:05:50.173Z,44096
2018-02-25T09:06:51.783Z,42496
2018-02-25T09:07:53.401Z,41536
2018-02-25T09:08:55.014Z,40992
2018-02-25T09:09:56.636Z,40416
2018-02-25T09:10:58.252Z,41664
2018-02-25T09:11:59.866Z,33920
2018-02-25T09:13:01.481Z,24576
2018-02-25T09:14:03.111Z,32736
2018-02-25T09:15:04.716Z,45920
2018-02-25T09:16:06.334Z,50496
2018-02-25T09:17:07.955Z,50368
2018-02-25T09:18:09.573Z,50944
2018-02-25T09:19:11.186Z,52672
2018-02-25T09:20:12.824Z,53056
2018-02-25T09:21:14.418Z,51328
2018-02-25T09:22:16.035Z,48256
2018-02-25T09:23:17.658Z,43712
2018-02-25T09:24:19.273Z,30912
2018-02-25T09:25:20.940Z,21664
2018-02-25T09:26:22.507Z,22880
2018-02-25T09:27:24.120Z,23712
2018-02-25T09:28:25.743Z,24640
2018-02-25T09:29:27.362Z,25888
2018-02-25T09:30:28.978Z,39040
2018-02-25T09:31:30.602Z,55392
2018-02-25T09:32:32.214Z,57728
2018-02-25T09:33:33.835Z,58208
2018-02-25T09:34:35.448Z,56192
2018-02-25T09:35:37.071Z,57952
2018-02-25T09:36:38.693Z,59616
2018-02-25T09:37:40.313Z,58976
2018-02-25T09:38:41.936Z,59456
2018-02-25T09:39:43.551Z,59520
2018-02-25T09:40:45.173Z,58464
2018-02-25T09:41:46.794Z,56928
2018-02-25T09:42:48.417Z,55584
2018-02-25T09:43:50.039Z,58368
2018-02-25T09:44:51.661Z,57984
2018-02-25T09:45:53.281Z,59136
2018-02-25T09:46:54.896Z,59360
2018-02-25T09:47:56.518Z,61088
2018-02-25T09:48:58.140Z,58336
2018-02-25T09:49:59.759Z,51488
2018-02-25T09:51:01.377Z,49280
2018-02-25T09:52:03.003Z,52448
2018-02-25T09:53:04.628Z,54848
2018-02-25T09:54:06.241Z,59328
2018-02-25T09:55:07.858Z,58592
2018-02-25T09:56:09.483Z,60480
2018-02-25T09:57:11.120Z,61440
2018-02-25T09:58:12.740Z,63488
2018-02-25T09:59:14.361Z,64704
2018-02-25T10:00:15.989Z,64640
2018-02-25T10:01:17.602Z,63840
2018-02-25T10:02:19.226Z,63712
2018-02-25T10:03:20.843Z,62016
2018-02-25T10:04:22.484Z,61888
2018-02-25T10:05:24.092Z,61728
2018-02-25T10:06:25.720Z,60672
2018-02-25T10:07:27.339Z,64960
2018-02-25T10:08:28.954Z,68384
2018-02-25T10:09:30.583Z,70304
2018-02-25T10:10:32.199Z,71392
2018-02-25T10:11:33.843Z,74336
2018-02-25T10:12:35.463Z,53888
2018-02-25T10:13:37.086Z,57472
2018-02-25T10:14:38.714Z,46976
2018-02-25T10:15:40.340Z,41856
2018-02-25T10:16:41.957Z,54496
2018-02-25T10:17:43.581Z,47328
2018-02-25T10:18:45.205Z,69600
2018-02-25T10:19:46.831Z,70336
2018-02-25T10:20:48.451Z,68256
2018-02-25T10:21:50.117Z,68576
2018-02-25T10:22:51.762Z,71584
2018-02-25T10:23:53.422Z,72800
2018-02-25T10:24:55.045Z,67456
2018-02-25T10:25:56.673Z,69952
2018-02-25T10:26:58.289Z,56224
2018-02-25T10:27:59.917Z,49472
2018-02-25T10:29:01.538Z,47648
2018-02-25T10:30:03.161Z,56224
2018-02-25T10:31:04.784Z,48416
2018-02-25T10:32:06.451Z,46528
2018-02-25T10:33:08.041Z,67936
2018-02-25T10:34:09.654Z,71648
2018-02-25T10:35:11.282Z,70144
2018-02-25T10:36:12.905Z,69568
2018-02-25T10:37:14.527Z,68736
2018-02-25T10:38:16.150Z,72064
2018-02-25T10:39:17.772Z,73920
2018-02-25T10:40:19.395Z,75648
2018-02-25T10:41:21.015Z,75456
2018-02-25T10:42:22.639Z,73984
2018-02-25T10:43:24.265Z,73312
2018-02-25T10:44:25.884Z,74816
2018-02-25T10:45:27.514Z,74656
2018-02-25T10:46:29.128Z,76224
2018-02-25T10:47:30.754Z,72064
2018-02-25T10:48:32.374Z,65344
2018-02-25T10:49:33.997Z,69728
2018-02-25T10:50:35.621Z,76128
2018-02-25T10:51:37.246Z,73344
2018-02-25T10:52:38.863Z,73376
2018-02-25T10:53:40.488Z,71008
2018-02-25T10:54:42.111Z,72768
2018-02-25T10:55:43.740Z,73664
2018-02-25T10:56:45.365Z,75872
2018-02-25T10:57:46.988Z,75616
2018-02-25T10:58:48.613Z,71776
2018-02-25T10:59:50.233Z,66592
2018-02-25T11:00:51.854Z,69280
2018-02-25T11:01:53.482Z,72640
2018-02-25T11:02:55.107Z,71520
2018-02-25T11:03:56.733Z,72032
2018-02-25T11:04:58.370Z,74016
2018-02-25T11:05:59.992Z,77504
2018-02-25T11:07:01.622Z,77408
2018-02-25T11:08:03.238Z,75712
2018-02-25T11:09:04.866Z,70240
2018-02-25T11:10:06.548Z,70176
2018-02-25T11:11:08.109Z,71360
2018-02-25T11:12:09.792Z,71136
2018-02-25T11:13:11.491Z,43104
2018-02-25T11:14:13.088Z,17632
2018-02-25T11:15:14.713Z,17056
2018-02-25T11:16:16.339Z,17536
2018-02-25T11:17:17.956Z,17088
2018-02-25T11:18:19.580Z,17152
2018-02-25T11:19:21.208Z,17440
2018-02-25T11:20:22.826Z,18496
2018-02-25T11:21:24.446Z,20608
2018-02-25T11:22:26.069Z,22528
2018-02-25T11:23:27.693Z,22304
2018-02-25T11:24:29.313Z,25440
2018-02-25T11:25:30.940Z,33920
2018-02-25T11:26:32.560Z,35168
2018-02-25T11:27:34.184Z,37184
2018-02-25T11:28:35.801Z,38464
2018-02-25T11:29:37.424Z,39392
2018-02-25T11:30:39.042Z,39776
2018-02-25T11:31:40.739Z,38624
2018-02-25T11:32:42.291Z,42688
2018-02-25T11:33:43.914Z,51872
2018-02-25T11:34:45.527Z,58880
2018-02-25T11:35:47.148Z,62016
2018-02-25T11:36:48.772Z,65600
2018-02-25T11:37:50.392Z,66848
2018-02-25T11:38:52.024Z,69696
2018-02-25T11:39:53.628Z,72288
2018-02-25T11:40:55.250Z,69760
2018-02-25T11:41:56.863Z,72384
2018-02-25T11:42:58.484Z,73376
2018-02-25T11:44:00.102Z,72256
2018-02-25T11:45:01.727Z,70848
2018-02-25T11:46:03.341Z,70816
2018-02-25T11:47:04.967Z,69792
2018-02-25T11:48:06.583Z,72832
2018-02-25T11:49:08.201Z,74048
2018-02-25T11:50:09.824Z,72064
2018-02-25T11:51:11.435Z,70336
2018-02-25T11:52:13.058Z,70592
2018-02-25T11:53:14.676Z,69792
2018-02-25T11:54:16.296Z,72192
2018-02-25T11:55:17.926Z,72160
2018-02-25T11:56:19.531Z,74016
2018-02-25T11:57:21.146Z,75264
2018-02-25T11:58:22.766Z,73152
2018-02-25T11:59:24.381Z,57056
2018-02-25T12:00:25.995Z,42400
2018-02-25T12:01:27.617Z,31104
2018-02-25T12:02:29.237Z,24832
2018-02-25T12:03:30.868Z,29600
2018-02-25T12:04:32.481Z,37760
2018-02-25T12:05:34.100Z,37088
2018-02-25T12:06:35.713Z,25088
2018-02-25T12:07:37.332Z,26304
2018-02-25T12:08:38.947Z,43712
2018-02-25T12:09:40.565Z,55744
2018-02-25T12:10:42.176Z,55872
2018-02-25T12:11:43.798Z,50656
2018-02-25T12:12:45.406Z,31872
2018-02-25T12:13:47.026Z,25664
2018-02-25T12:14:48.642Z,33408
2018-02-25T12:15:50.275Z,36672
2018-02-25T12:16:51.895Z,57120
2018-02-25T12:17:53.507Z,67168
2018-02-25T12:18:55.121Z,60960
2018-02-25T12:19:56.739Z,50432
2018-02-25T12:20:58.364Z,49376
2018-02-25T12:21:59.996Z,38720
2018-02-25T12:23:01.609Z,30560
2018-02-25T12:24:03.235Z,22112
2018-02-25T12:25:04.865Z,28128
2018-02-25T12:26:06.485Z,13912
2018-02-25T12:27:08.096Z,12328
2018-02-25T12:28:09.706Z,12128
2018-02-25T12:29:11.323Z,11828
2018-02-25T12:30:12.962Z,11580
2018-02-25T12:31:14.586Z,11444
2018-02-25T12:32:16.205Z,11328
2018-02-25T12:33:17.822Z,11216
2018-02-25T12:34:19.439Z,11120
2018-02-25T12:35:21.048Z,11052
2018-02-25T12:36:22.664Z,10944
2018-02-25T12:37:24.281Z,10872
2018-02-25T12:38:25.897Z,10772
2018-02-25T12:39:27.514Z,10664
2018-02-25T12:40:29.125Z,10612
2018-02-25T12:41:30.742Z,10480
2018-02-25T12:42:32.352Z,10316
2018-02-25T12:43:33.993Z,10116
2018-02-25T12:44:35.609Z,9900
2018-02-25T12:45:37.232Z,9840
2018-02-25T12:46:38.837Z,9736
2018-02-25T12:47:40.451Z,9760
2018-02-25T12:48:42.067Z,9764
2018-02-25T12:49:43.679Z,9736
2018-02-25T12:50:45.290Z,9672
2018-02-25T12:51:46.916Z,9640
2018-02-25T12:52:48.524Z,9600
2018-02-25T12:53:50.135Z,9560
2018-02-25T12:54:51.751Z,9512
2018-02-25T12:55:53.360Z,9476
2018-02-25T12:56:54.978Z,9436
2018-02-25T12:57:56.591Z,9380
2018-02-25T12:58:58.208Z,9364
2018-02-25T12:59:59.818Z,9412
2018-02-25T13:01:01.436Z,9352
2018-02-25T13:02:03.046Z,9364
2018-02-25T13:03:04.665Z,9340
2018-02-25T13:04:06.279Z,9316
2018-02-25T13:05:07.888Z,9200
2018-02-25T13:06:09.507Z,9032
2018-02-25T13:07:11.118Z,9140
2018-02-25T13:08:12.729Z,9064
2018-02-25T13:09:14.366Z,9024
2018-02-25T13:10:15.973Z,9072
2018-02-25T13:11:17.591Z,9072
2018-02-25T13:12:19.204Z,9108
2018-02-25T13:13:20.816Z,9128
2018-02-25T13:14:22.436Z,9156
2018-02-25T13:15:24.047Z,9176
2018-02-25T13:16:25.662Z,9108
2018-02-25T13:17:27.269Z,9048
2018-02-25T13:18:28.882Z,8944
2018-02-25T13:19:30.497Z,8796
2018-02-25T13:20:32.108Z,8536
2018-02-25T13:21:33.729Z,8500
2018-02-25T13:22:35.341Z,8444
2018-02-25T13:23:36.950Z,8496
2018-02-25T13:24:38.565Z,8348
2018-02-25T13:25:40.181Z,8260
2018-02-25T13:26:41.787Z,8332
2018-02-25T13:27:43.405Z,8484
2018-02-25T13:28:45.841Z,8520
2018-02-25T13:29:47.449Z,8520
2018-02-25T13:30:49.065Z,8476
2018-02-25T13:31:51.251Z,8512
2018-02-25T13:32:52.871Z,8488
2018-02-25T13:33:54.479Z,8460
2018-02-25T13:34:56.090Z,8452
2018-02-25T13:35:57.703Z,8444
2018-02-25T13:36:59.310Z,8412
2018-02-25T13:38:00.923Z,8392
2018-02-25T13:39:02.532Z,8368
2018-02-25T13:40:04.147Z,8404
2018-02-25T13:41:05.761Z,8424
2018-02-25T13:42:07.371Z,8400
2018-02-25T13:43:08.988Z,8400
2018-02-25T13:44:10.596Z,8340
2018-02-25T13:45:12.208Z,8400
2018-02-25T13:46:13.824Z,8368
2018-02-25T13:47:15.486Z,8376
2018-02-25T13:48:17.042Z,8388
2018-02-25T13:49:18.654Z,8352
2018-02-25T13:50:20.264Z,8332
2018-02-25T13:51:21.879Z,8352
2018-02-25T13:52:23.492Z,8344
2018-02-25T13:53:25.098Z,8328
2018-02-25T13:54:26.720Z,8268
2018-02-25T13:55:28.326Z,8216
2018-02-25T13:56:29.936Z,8196
2018-02-25T13:57:31.554Z,8180
2018-02-25T13:58:33.161Z,8140
2018-02-25T13:59:34.774Z,8076
2018-02-25T14:00:36.382Z,7584
2018-02-25T14:01:37.993Z,8060
2018-02-25T14:02:39.673Z,8020
2018-02-25T14:03:41.306Z,7996
2018-02-25T14:04:42.918Z,7968
2018-02-25T14:05:44.524Z,7948
2018-02-25T14:06:46.134Z,7956
2018-02-25T14:07:47.747Z,7976
2018-02-25T14:08:49.355Z,7956